Arma, Kansas
Current Conditions -  °F | °C
As of 4:35 PM on Thursday 20 Nov 2014 (Local Time) from KPTS Reporting Station
Clear Clear  
Wind Chill: 43°   Ceiling: Unl
Heat Index: 47°   Visibility: 10mi
Dew Point: 28°   Wind: 9mph
Humidity: 47%   Direction: 90°E
Pressure: 30.13"   Gusts: NA
Location:  37.54°N, 94.7°W
Report Text: KPTS 202235Z AUTO 09008KT 10SM CLR 08/M02 A3013 RMK AO2 T00841023
Loading
Personal Weather Stations






























Interactive Weather Map New forecast layout! Learn more

10-Day Weather Forecast

Advertisements
Track Severe Weather on mobile